Map

Track Data

SID SEASON NUMBER BASIN SUBBASIN NAME ISO_TIME NATURE LAT LON WMO_WIND WMO_PRES WMO_AGENCY TRACK_TYPE DIST2LAND LANDFALL IFLAG USA_AGENCY USA_ATCF_ID USA_LAT USA_LON USA_RECORD USA_STATUS USA_WIND USA_PRES USA_SSHS USA_R34_NE USA_R34_SE USA_R34_SW USA_R34_NW USA_R50_NE USA_R50_SE USA_R50_SW USA_R50_NW USA_R64_NE USA_R64_SE USA_R64_SW USA_R64_NW USA_POCI USA_ROCI USA_RMW USA_EYE TOKYO_LAT TOKYO_LON TOKYO_GRADE TOKYO_WIND TOKYO_PRES TOKYO_R50_DIR TOKYO_R50_LONG TOKYO_R50_SHORT TOKYO_R30_DIR TOKYO_R30_LONG TOKYO_R30_SHORT TOKYO_LAND CMA_LAT CMA_LON CMA_CAT CMA_WIND CMA_PRES HKO_LAT HKO_LON HKO_CAT HKO_WIND HKO_PRES NEWDELHI_LAT NEWDELHI_LON NEWDELHI_GRADE NEWDELHI_WIND NEWDELHI_PRES NEWDELHI_CI NEWDELHI_DP NEWDELHI_POCI REUNION_LAT REUNION_LON REUNION_TYPE REUNION_WIND REUNION_PRES REUNION_TNUM REUNION_CI REUNION_RMW REUNION_R34_NE REUNION_R34_SE REUNION_R34_SW REUNION_R34_NW REUNION_R50_NE REUNION_R50_SE REUNION_R50_SW REUNION_R50_NW REUNION_R64_NE REUNION_R64_SE REUNION_R64_SW REUNION_R64_NW BOM_LAT BOM_LON BOM_TYPE BOM_WIND BOM_PRES BOM_TNUM BOM_CI BOM_RMW BOM_R34_NE BOM_R34_SE BOM_R34_SW BOM_R34_NW BOM_R50_NE BOM_R50_SE BOM_R50_SW BOM_R50_NW BOM_R64_NE BOM_R64_SE BOM_R64_SW BOM_R64_NW BOM_ROCI BOM_POCI BOM_EYE BOM_POS_METHOD BOM_PRES_METHOD NADI_LAT NADI_LON NADI_CAT NADI_WIND NADI_PRES WELLINGTON_LAT WELLINGTON_LON WELLINGTON_WIND WELLINGTON_PRES DS824_LAT DS824_LON DS824_STAGE DS824_WIND DS824_PRES TD9636_LAT TD9636_LON TD9636_STAGE TD9636_WIND TD9636_PRES TD9635_LAT TD9635_LON TD9635_WIND TD9635_PRES TD9635_ROCI NEUMANN_LAT NEUMANN_LON NEUMANN_CLASS NEUMANN_WIND NEUMANN_PRES MLC_LAT MLC_LON MLC_CLASS MLC_WIND MLC_PRES USA_GUST BOM_GUST BOM_GUST_PER REUNION_GUST REUNION_GUST_PER USA_SEAHGT USA_SEARAD_NE USA_SEARAD_SE USA_SEARAD_SW USA_SEARAD_NW STORM_SPEED STORM_DIR
1998355S20210 1999 107 SP MM NOT_NAMED 1998-12-21 00:00:00 TS -20.4000 -150.100 main 2459 2435 O___________O_ jtwc_sh SH081999 -20.4000 -150.100 25 -1 -20.4000 -150.100 TC 25 6 237
1998355S20210 1999 107 SP MM NOT_NAMED 1998-12-21 03:00:00 TS -20.5658 -150.368 main 2435 2417 P___________P_ SH081999 -20.5689 -150.364 25 -1 -20.5626 -150.372 TC 25 6 237
1998355S20210 1999 107 SP MM NOT_NAMED 1998-12-21 06:00:00 TS -20.7000 -150.600 main 2417 2400 O___________O_ jtwc_sh SH081999 -20.7000 -150.600 25 -1 -20.7000 -150.600 TC 25 4 240
1998355S20210 1999 107 SP MM NOT_NAMED 1998-12-21 09:00:00 TS -20.7866 -150.774 main 2400 2390 P___________P_ SH081999 -20.7732 -150.790 26 -1 -20.7999 -150.758 TC 25 3 241
1998355S20210 1999 107 SP MM NOT_NAMED 1998-12-21 12:00:00 TS -20.8686 -150.926 main 2393 2373 P___________O_ SH081999 -20.8372 -150.951 27 -1 -20.9000 -150.900 TC 25 4 238
1998355S20210 1999 107 SP MM NOT_NAMED 1998-12-21 15:00:00 TS -20.9775 -151.098 main 2376 2363 P___________P_ SH081999 -20.9576 -151.112 28 -1 -20.9975 -151.085 TC 27 5 226
1998355S20210 1999 107 SP MM NOT_NAMED 1998-12-21 18:00:00 TS -21.2000 -151.300 main 2363 2343 O___________O_ jtwc_sh SH081999 -21.2000 -151.300 30 -1 -21.2000 -151.300 TC 30 8 217
1998355S20210 1999 107 SP MM NOT_NAMED 1998-12-21 21:00:00 TS -21.5883 -151.597 main 2347 2338 P___________P_ SH081999 -21.5939 -151.599 32 -1 -21.5826 -151.594 TC 32 10 207
1998355S20210 1999 107 SP MM NOT_NAMED 1998-12-22 00:00:00 TS -22.1000 -151.800 main 2346 2346 O___________O_ jtwc_sh SH081999 -22.1000 -151.800 35 0 -22.1000 -151.800 TC 35 11 189
1998355S20210 1999 107 SP MM NOT_NAMED 1998-12-22 03:00:00 TS -22.6699 -151.783 main 2369 2369 P___________P_ SH081999 -22.6699 -151.783 35 0 -22.6699 -151.783 TC 35 12 171
1998355S20210 1999 107 SP MM NOT_NAMED 1998-12-22 06:00:00 TS -23.3000 -151.600 main 2413 2413 O___________O_ jtwc_sh SH081999 -23.3000 -151.600 35 0 -23.3000 -151.600 TC 35 13 163
1998355S20210 1999 107 SP MM NOT_NAMED 1998-12-22 09:00:00 TS -23.9499 -151.352 main 2458 2458 P___________P_ SH081999 -23.9499 -151.352 35 0 -23.9499 -151.352 TC 35 14 157
1998355S20210 1999 107 SP MM NOT_NAMED 1998-12-22 12:00:00 TS -24.6000 -151.000 main 2527 2527 O___________O_ jtwc_sh SH081999 -24.6000 -151.000 35 0 -24.6000 -151.000 TC 35 14 152
1998355S20210 1999 107 SP MM NOT_NAMED 1998-12-22 15:00:00 TS -25.1542 -150.638 main 2592 2592 P___________P_ SH081999 -25.1542 -150.638 37 0 -25.1542 -150.638 TC 37 15 146
1998355S20210 1999 107 SP MM NOT_NAMED 1998-12-22 18:00:00 TS -25.8000 -150.100 main 2666 2666 O___________O_ jtwc_sh SH081999 -25.8000 -150.100 40 0 -25.8000 -150.100 TC 40 20 141
1998355S20210 1999 107 SP MM NOT_NAMED 1998-12-22 21:00:00 TS -26.6759 -149.253 main 2782 2782 P___________P_ SH081999 -26.6759 -149.253 42 0 -26.6759 -149.253 TC 42 25 140
1998355S20210 1999 107 SP MM NOT_NAMED 1998-12-23 00:00:00 TS -27.7000 -148.300 main 2921 2921 O___________O_ jtwc_sh SH081999 -27.7000 -148.300 45 0 -27.7000 -148.300 TC 45 25 144
1998355S20210 1999 107 SP MM NOT_NAMED 1998-12-23 03:00:00 TS -28.6843 -147.595 main 3033 3033 P___________P_ SH081999 -28.6843 -147.595 45 0 -28.6843 -147.595 TC 45 26 147
1998355S20210 1999 107 SP MM NOT_NAMED 1998-12-23 06:00:00 TS -29.9000 -146.700 main 3174 3174 O___________O_ jtwc_sh SH081999 -29.9000 -146.700 45 0 -29.9000 -146.700 TC 45 35 144
1998355S20210 1999 107 SP MM NOT_NAMED 1998-12-23 09:00:00 TS -31.5031 -145.264 main 3347 3347 P___________P_ SH081999 -31.5031 -145.264 47 0 -31.5031 -145.264 TC 47 44 141
1998355S20210 1999 107 SP MM NOT_NAMED 1998-12-23 12:00:00 TS -33.3000 -143.500 main 3434 3434 O___________O_ jtwc_sh SH081999 -33.3000 -143.500 50 0 -33.3000 -143.500 TC 50 46 141
1998355S20210 1999 107 SP MM NOT_NAMED 1998-12-23 15:00:00 TS -35.0642 -141.775 main 3520 3520 P___________P_ SH081999 -35.0642 -141.775 42 0 -35.0642 -141.775 TC 42 47 138
1998355S20210 1999 107 SP MM NOT_NAMED 1998-12-23 18:00:00 TS -36.8000 -139.700 main 3651 3651 O___________O_ jtwc_sh SH081999 -36.8000 -139.700 35 0 -36.8000 -139.700 TC 35 51 132
1998355S20210 1999 107 SP MM NOT_NAMED 1998-12-23 21:00:00 TS -38.4126 -137.054 main 3830 3739 P___________P_ SH081999 -38.4126 -137.054 32 -1 -38.4126 -137.054 TC 32 54 125
1998355S20210 1999 107 SP MM NOT_NAMED 1998-12-24 00:00:00 TS -39.9000 -134.000 main 3727 O___________O_ jtwc_sh SH081999 -39.9000 -134.000 30 -1 -39.9000 -134.000 TC 30 56 122

Digital Typhoon Data and Search

About IBTrACS Database

This database is a web-friendly format of International Best Track Archive for Climate Stewardship (IBTrACS), a global best track data archive curated by NOAA dating back to 1842.

Updated: 2021-11-26